sensor_id;sensor_type;location;lat;lon;timestamp;pressure;altitude;pressure_sealevel;temperature;humidity
72038;BME280;59900;50.788;12.904;2023-04-03T00:01:18;98495.66;;;1.77;79.58
72038;BME280;59900;50.788;12.904;2023-04-03T00:03:43;98486.72;;;1.70;81.19
72038;BME280;59900;50.788;12.904;2023-04-03T00:06:10;98491.91;;;1.70;81.54
72038;BME280;59900;50.788;12.904;2023-04-03T00:08:37;98496.13;;;1.71;80.66
72038;BME280;59900;50.788;12.904;2023-04-03T00:11:03;98491.69;;;1.73;81.75
72038;BME280;59900;50.788;12.904;2023-04-03T00:13:29;98493.53;;;1.71;82.17
72038;BME280;59900;50.788;12.904;2023-04-03T00:15:54;98496.03;;;1.73;81.89
72038;BME280;59900;50.788;12.904;2023-04-03T00:18:20;98502.28;;;1.70;82.11
72038;BME280;59900;50.788;12.904;2023-04-03T00:20:45;98491.66;;;1.62;81.18
72038;BME280;59900;50.788;12.904;2023-04-03T00:23:10;98494.38;;;1.60;81.50
72038;BME280;59900;50.788;12.904;2023-04-03T00:25:36;98487.16;;;1.53;81.86
72038;BME280;59900;50.788;12.904;2023-04-03T00:28:02;98503.06;;;1.48;82.29
72038;BME280;59900;50.788;12.904;2023-04-03T00:30:27;98510.00;;;1.48;82.50
72038;BME280;59900;50.788;12.904;2023-04-03T00:32:53;98497.97;;;1.47;81.28
72038;BME280;59900;50.788;12.904;2023-04-03T00:35:20;98509.75;;;1.40;81.80
72038;BME280;59900;50.788;12.904;2023-04-03T00:37:46;98504.22;;;1.33;81.50
72038;BME280;59900;50.788;12.904;2023-04-03T00:40:13;98504.44;;;1.30;82.36
72038;BME280;59900;50.788;12.904;2023-04-03T00:42:40;98508.09;;;1.28;81.81
72038;BME280;59900;50.788;12.904;2023-04-03T00:47:31;98506.41;;;1.27;81.13
72038;BME280;59900;50.788;12.904;2023-04-03T00:49:56;98508.53;;;1.22;81.70
72038;BME280;59900;50.788;12.904;2023-04-03T00:52:25;98502.66;;;1.20;81.20
72038;BME280;59900;50.788;12.904;2023-04-03T00:54:57;98516.16;;;1.12;81.40
72038;BME280;59900;50.788;12.904;2023-04-03T00:57:26;98514.63;;;1.09;81.62
72038;BME280;59900;50.788;12.904;2023-04-03T00:59:56;98508.50;;;1.10;81.53
72038;BME280;59900;50.788;12.904;2023-04-03T01:02:21;98508.59;;;1.09;81.92
72038;BME280;59900;50.788;12.904;2023-04-03T01:04:47;98520.28;;;1.14;81.54
72038;BME280;59900;50.788;12.904;2023-04-03T01:07:16;98509.34;;;1.11;81.47
72038;BME280;59900;50.788;12.904;2023-04-03T01:09:45;98513.91;;;1.07;80.79
72038;BME280;59900;50.788;12.904;2023-04-03T01:12:17;98519.09;;;1.07;81.00
72038;BME280;59900;50.788;12.904;2023-04-03T01:14:44;98512.38;;;1.05;80.70
72038;BME280;59900;50.788;12.904;2023-04-03T01:17:47;98511.78;;;1.01;81.30
72038;BME280;59900;50.788;12.904;2023-04-03T01:20:40;98513.66;;;0.99;80.41
72038;BME280;59900;50.788;12.904;2023-04-03T01:25:35;98517.84;;;0.89;80.56
72038;BME280;59900;50.788;12.904;2023-04-03T01:28:02;98522.91;;;0.91;80.98
72038;BME280;59900;50.788;12.904;2023-04-03T01:30:32;98519.38;;;0.92;80.95
72038;BME280;59900;50.788;12.904;2023-04-03T01:32:58;98520.44;;;0.89;81.58
72038;BME280;59900;50.788;12.904;2023-04-03T01:35:24;98517.13;;;0.87;81.47
72038;BME280;59900;50.788;12.904;2023-04-03T01:37:49;98524.78;;;0.89;81.88
72038;BME280;59900;50.788;12.904;2023-04-03T01:40:14;98522.19;;;0.89;81.39
72038;BME280;59900;50.788;12.904;2023-04-03T01:42:40;98533.38;;;0.89;80.57
72038;BME280;59900;50.788;12.904;2023-04-03T01:45:05;98528.81;;;0.93;81.27
72038;BME280;59900;50.788;12.904;2023-04-03T01:47:31;98526.81;;;0.96;80.78
72038;BME280;59900;50.788;12.904;2023-04-03T01:49:56;98526.22;;;0.93;80.72
72038;BME280;59900;50.788;12.904;2023-04-03T01:52:21;98528.19;;;0.89;80.82
72038;BME280;59900;50.788;12.904;2023-04-03T01:54:46;98521.47;;;0.87;81.42
72038;BME280;59900;50.788;12.904;2023-04-03T01:57:12;98521.94;;;0.81;81.74
72038;BME280;59900;50.788;12.904;2023-04-03T01:59:38;98525.44;;;0.80;82.17
72038;BME280;59900;50.788;12.904;2023-04-03T02:02:03;98522.59;;;0.72;82.04
72038;BME280;59900;50.788;12.904;2023-04-03T02:04:29;98523.41;;;0.72;82.31
72038;BME280;59900;50.788;12.904;2023-04-03T02:06:54;98527.97;;;0.69;81.88
72038;BME280;59900;50.788;12.904;2023-04-03T02:09:19;98527.66;;;0.73;82.23
72038;BME280;59900;50.788;12.904;2023-04-03T02:11:44;98521.28;;;0.66;81.97
72038;BME280;59900;50.788;12.904;2023-04-03T02:14:10;98537.13;;;0.62;81.87
72038;BME280;59900;50.788;12.904;2023-04-03T02:16:35;98530.28;;;0.61;81.94
72038;BME280;59900;50.788;12.904;2023-04-03T02:19:00;98533.81;;;0.60;81.76
72038;BME280;59900;50.788;12.904;2023-04-03T02:21:25;98532.47;;;0.54;81.74
72038;BME280;59900;50.788;12.904;2023-04-03T02:23:51;98530.72;;;0.54;81.91
72038;BME280;59900;50.788;12.904;2023-04-03T02:26:16;98538.50;;;0.54;81.55
72038;BME280;59900;50.788;12.904;2023-04-03T02:28:42;98528.97;;;0.55;81.47
72038;BME280;59900;50.788;12.904;2023-04-03T02:31:08;98528.16;;;0.54;82.52
72038;BME280;59900;50.788;12.904;2023-04-03T02:33:34;98540.03;;;0.57;81.49
72038;BME280;59900;50.788;12.904;2023-04-03T02:36:02;98540.03;;;0.57;81.88
72038;BME280;59900;50.788;12.904;2023-04-03T02:38:28;98543.88;;;0.51;81.15
72038;BME280;59900;50.788;12.904;2023-04-03T02:40:53;98539.97;;;0.46;82.08
72038;BME280;59900;50.788;12.904;2023-04-03T02:43:24;98536.16;;;0.39;82.09
72038;BME280;59900;50.788;12.904;2023-04-03T02:45:49;98539.69;;;0.38;82.06
72038;BME280;59900;50.788;12.904;2023-04-03T02:48:14;98543.19;;;0.37;82.10
72038;BME280;59900;50.788;12.904;2023-04-03T02:50:41;98551.88;;;0.36;81.44
72038;BME280;59900;50.788;12.904;2023-04-03T02:53:06;98545.88;;;0.35;81.78
72038;BME280;59900;50.788;12.904;2023-04-03T02:55:32;98547.53;;;0.36;82.48
72038;BME280;59900;50.788;12.904;2023-04-03T02:57:57;98548.72;;;0.32;81.99
72038;BME280;59900;50.788;12.904;2023-04-03T03:00:22;98549.94;;;0.27;82.07
72038;BME280;59900;50.788;12.904;2023-04-03T03:02:48;98554.94;;;0.17;82.45
72038;BME280;59900;50.788;12.904;2023-04-03T03:05:14;98556.78;;;0.15;82.73
72038;BME280;59900;50.788;12.904;2023-04-03T03:07:39;98571.38;;;0.16;82.73
72038;BME280;59900;50.788;12.904;2023-04-03T03:10:05;98563.41;;;0.19;82.94
72038;BME280;59900;50.788;12.904;2023-04-03T03:12:30;98557.41;;;0.19;82.89
72038;BME280;59900;50.788;12.904;2023-04-03T03:14:55;98559.06;;;0.20;82.28
72038;BME280;59900;50.788;12.904;2023-04-03T03:17:21;98558.13;;;0.21;82.27
72038;BME280;59900;50.788;12.904;2023-04-03T03:19:46;98563.50;;;0.18;82.14
72038;BME280;59900;50.788;12.904;2023-04-03T03:22:11;98564.75;;;0.12;83.09
72038;BME280;59900;50.788;12.904;2023-04-03T03:24:36;98564.16;;;0.09;82.47
72038;BME280;59900;50.788;12.904;2023-04-03T03:27:02;98565.28;;;0.05;82.96
72038;BME280;59900;50.788;12.904;2023-04-03T03:29:27;98567.97;;;0.03;83.28
72038;BME280;59900;50.788;12.904;2023-04-03T03:31:52;98568.59;;;0.07;83.53
72038;BME280;59900;50.788;12.904;2023-04-03T03:34:17;98571.06;;;0.08;82.90
72038;BME280;59900;50.788;12.904;2023-04-03T03:36:43;98579.88;;;0.06;82.93
72038;BME280;59900;50.788;12.904;2023-04-03T03:39:08;98579.25;;;0.02;83.32
72038;BME280;59900;50.788;12.904;2023-04-03T03:41:33;98586.16;;;0.02;83.05
72038;BME280;59900;50.788;12.904;2023-04-03T03:43:58;98587.09;;;0.00;83.03
72038;BME280;59900;50.788;12.904;2023-04-03T03:46:24;98588.88;;;0.00;83.31
72038;BME280;59900;50.788;12.904;2023-04-03T03:48:49;98594.34;;;-0.05;83.53
72038;BME280;59900;50.788;12.904;2023-04-03T03:51:15;98591.97;;;-0.08;83.50
72038;BME280;59900;50.788;12.904;2023-04-03T03:53:40;98596.69;;;-0.14;83.66
72038;BME280;59900;50.788;12.904;2023-04-03T03:56:05;98593.41;;;-0.16;83.64
72038;BME280;59900;50.788;12.904;2023-04-03T03:58:31;98594.44;;;-0.19;83.96
72038;BME280;59900;50.788;12.904;2023-04-03T04:01:00;98594.53;;;-0.20;83.24
72038;BME280;59900;50.788;12.904;2023-04-03T04:03:25;98591.44;;;-0.25;83.27
72038;BME280;59900;50.788;12.904;2023-04-03T04:05:51;98592.47;;;-0.28;83.69
72038;BME280;59900;50.788;12.904;2023-04-03T04:08:16;98595.47;;;-0.34;83.55
72038;BME280;59900;50.788;12.904;2023-04-03T04:10:41;98596.38;;;-0.35;83.81
72038;BME280;59900;50.788;12.904;2023-04-03T04:13:07;98605.16;;;-0.37;83.83
72038;BME280;59900;50.788;12.904;2023-04-03T04:15:32;98596.19;;;-0.44;83.70
72038;BME280;59900;50.788;12.904;2023-04-03T04:17:57;98614.56;;;-0.49;83.89
72038;BME280;59900;50.788;12.904;2023-04-03T04:20:22;98612.47;;;-0.57;83.81
72038;BME280;59900;50.788;12.904;2023-04-03T04:22:48;98609.06;;;-0.57;84.25
72038;BME280;59900;50.788;12.904;2023-04-03T04:25:13;98603.41;;;-0.62;84.26
72038;BME280;59900;50.788;12.904;2023-04-03T04:27:38;98618.03;;;-0.63;84.44
72038;BME280;59900;50.788;12.904;2023-04-03T04:30:04;98612.06;;;-0.63;84.16
72038;BME280;59900;50.788;12.904;2023-04-03T04:32:30;98605.81;;;-0.73;84.92
72038;BME280;59900;50.788;12.904;2023-04-03T04:34:55;98622.34;;;-0.76;85.12
72038;BME280;59900;50.788;12.904;2023-04-03T04:37:21;98613.56;;;-0.73;84.67
72038;BME280;59900;50.788;12.904;2023-04-03T04:39:46;98619.47;;;-0.71;84.43
72038;BME280;59900;50.788;12.904;2023-04-03T04:42:11;98616.97;;;-0.73;85.45
72038;BME280;59900;50.788;12.904;2023-04-03T04:44:38;98616.91;;;-0.71;85.26
72038;BME280;59900;50.788;12.904;2023-04-03T04:47:03;98624.53;;;-0.70;84.89
72038;BME280;59900;50.788;12.904;2023-04-03T04:49:29;98622.97;;;-0.72;85.98
72038;BME280;59900;50.788;12.904;2023-04-03T04:51:54;98628.13;;;-0.72;84.54
72038;BME280;59900;50.788;12.904;2023-04-03T04:54:19;98631.44;;;-0.70;86.02
72038;BME280;59900;50.788;12.904;2023-04-03T04:56:45;98629.19;;;-0.62;85.35
72038;BME280;59900;50.788;12.904;2023-04-03T04:59:10;98629.72;;;-0.57;84.89
72038;BME280;59900;50.788;12.904;2023-04-03T05:01:35;98629.00;;;-0.59;84.76
72038;BME280;59900;50.788;12.904;2023-04-03T05:04:01;98641.56;;;-0.67;84.02
72038;BME280;59900;50.788;12.904;2023-04-03T05:06:26;98634.22;;;-0.73;85.38
72038;BME280;59900;50.788;12.904;2023-04-03T05:08:51;98639.47;;;-0.75;84.65
72038;BME280;59900;50.788;12.904;2023-04-03T05:11:16;98642.78;;;-0.73;84.34
72038;BME280;59900;50.788;12.904;2023-04-03T05:13:42;98645.47;;;-0.74;84.79
72038;BME280;59900;50.788;12.904;2023-04-03T05:16:07;98647.22;;;-0.75;84.32
72038;BME280;59900;50.788;12.904;2023-04-03T05:18:32;98650.63;;;-0.74;84.48
72038;BME280;59900;50.788;12.904;2023-04-03T05:20:57;98654.13;;;-0.75;84.97
72038;BME280;59900;50.788;12.904;2023-04-03T05:23:23;98650.53;;;-0.73;84.77
72038;BME280;59900;50.788;12.904;2023-04-03T05:25:48;98657.03;;;-0.67;84.64
72038;BME280;59900;50.788;12.904;2023-04-03T05:28:14;98655.59;;;-0.71;84.55
72038;BME280;59900;50.788;12.904;2023-04-03T05:30:39;98662.50;;;-0.72;85.17
72038;BME280;59900;50.788;12.904;2023-04-03T05:33:05;98660.56;;;-0.68;83.88
72038;BME280;59900;50.788;12.904;2023-04-03T05:35:31;98659.75;;;-0.69;84.33
72038;BME280;59900;50.788;12.904;2023-04-03T05:37:56;98661.22;;;-0.65;84.17
72038;BME280;59900;50.788;12.904;2023-04-03T05:40:21;98657.28;;;-0.58;84.61
72038;BME280;59900;50.788;12.904;2023-04-03T05:42:47;98662.16;;;-0.53;83.78
72038;BME280;59900;50.788;12.904;2023-04-03T05:45:12;98664.44;;;-0.48;83.88
72038;BME280;59900;50.788;12.904;2023-04-03T05:47:37;98668.56;;;-0.46;84.06
72038;BME280;59900;50.788;12.904;2023-04-03T05:50:03;98673.75;;;-0.46;83.82
72038;BME280;59900;50.788;12.904;2023-04-03T05:52:30;98677.97;;;-0.45;83.19
72038;BME280;59900;50.788;12.904;2023-04-03T05:54:56;98674.03;;;-0.50;83.49
72038;BME280;59900;50.788;12.904;2023-04-03T05:57:22;98670.81;;;-0.54;84.08
72038;BME280;59900;50.788;12.904;2023-04-03T05:59:48;98682.19;;;-0.57;83.38
72038;BME280;59900;50.788;12.904;2023-04-03T06:02:18;98686.41;;;-0.56;83.03
72038;BME280;59900;50.788;12.904;2023-04-03T06:04:44;98678.97;;;-0.60;83.79
72038;BME280;59900;50.788;12.904;2023-04-03T06:07:13;98685.41;;;-0.53;84.24
72038;BME280;59900;50.788;12.904;2023-04-03T06:09:40;98690.38;;;-0.50;83.70
72038;BME280;59900;50.788;12.904;2023-04-03T06:12:05;98691.81;;;-0.46;83.53
72038;BME280;59900;50.788;12.904;2023-04-03T06:14:31;98694.31;;;-0.44;83.43
72038;BME280;59900;50.788;12.904;2023-04-03T06:16:56;98700.06;;;-0.41;83.63
72038;BME280;59900;50.788;12.904;2023-04-03T06:19:22;98689.47;;;-0.36;82.40
72038;BME280;59900;50.788;12.904;2023-04-03T06:21:47;98689.53;;;-0.38;82.24
72038;BME280;59900;50.788;12.904;2023-04-03T06:24:15;98691.41;;;-0.40;82.09
72038;BME280;59900;50.788;12.904;2023-04-03T06:26:42;98696.19;;;-0.34;82.17
72038;BME280;59900;50.788;12.904;2023-04-03T06:29:07;98697.66;;;-0.30;81.98
72038;BME280;59900;50.788;12.904;2023-04-03T06:31:33;98691.53;;;-0.29;81.87
72038;BME280;59900;50.788;12.904;2023-04-03T06:33:58;98700.63;;;-0.23;80.90
72038;BME280;59900;50.788;12.904;2023-04-03T06:36:24;98697.84;;;-0.20;81.16
72038;BME280;59900;50.788;12.904;2023-04-03T06:38:49;98701.38;;;-0.21;81.35
72038;BME280;59900;50.788;12.904;2023-04-03T06:41:15;98700.75;;;-0.25;81.25
72038;BME280;59900;50.788;12.904;2023-04-03T06:43:41;98711.09;;;-0.25;80.96
72038;BME280;59900;50.788;12.904;2023-04-03T06:46:13;98718.44;;;-0.19;81.14
72038;BME280;59900;50.788;12.904;2023-04-03T06:48:39;98712.88;;;-0.13;80.49
72038;BME280;59900;50.788;12.904;2023-04-03T06:51:04;98717.63;;;-0.07;81.55
72038;BME280;59900;50.788;12.904;2023-04-03T06:53:30;98725.28;;;-0.05;80.61
72038;BME280;59900;50.788;12.904;2023-04-03T06:55:56;98729.19;;;0.00;80.67
72038;BME280;59900;50.788;12.904;2023-04-03T06:58:21;98722.50;;;-0.02;79.87
72038;BME280;59900;50.788;12.904;2023-04-03T07:00:47;98724.44;;;-0.06;79.46
72038;BME280;59900;50.788;12.904;2023-04-03T07:03:12;98729.59;;;-0.06;78.73
72038;BME280;59900;50.788;12.904;2023-04-03T07:05:38;98733.84;;;-0.05;79.60
72038;BME280;59900;50.788;12.904;2023-04-03T07:08:03;98735.72;;;-0.07;79.65
72038;BME280;59900;50.788;12.904;2023-04-03T07:10:28;98733.22;;;-0.08;79.30
72038;BME280;59900;50.788;12.904;2023-04-03T07:12:53;98734.28;;;0.02;79.82
72038;BME280;59900;50.788;12.904;2023-04-03T07:15:19;98737.78;;;0.01;79.39
72038;BME280;59900;50.788;12.904;2023-04-03T07:17:44;98737.16;;;-0.03;78.78
72038;BME280;59900;50.788;12.904;2023-04-03T07:20:10;98740.50;;;-0.01;78.68
72038;BME280;59900;50.788;12.904;2023-04-03T07:22:36;98744.72;;;0.00;79.03
72038;BME280;59900;50.788;12.904;2023-04-03T07:25:01;98748.34;;;0.11;79.16
72038;BME280;59900;50.788;12.904;2023-04-03T07:27:27;98749.38;;;0.21;78.67
72038;BME280;59900;50.788;12.904;2023-04-03T07:29:53;98748.47;;;0.22;78.05
72038;BME280;59900;50.788;12.904;2023-04-03T07:32:20;98751.47;;;0.28;78.20
72038;BME280;59900;50.788;12.904;2023-04-03T07:34:45;98748.38;;;0.23;76.73
72038;BME280;59900;50.788;12.904;2023-04-03T07:37:11;98755.09;;;0.26;76.54
72038;BME280;59900;50.788;12.904;2023-04-03T07:39:36;98750.44;;;0.31;77.93
72038;BME280;59900;50.788;12.904;2023-04-03T07:42:01;98759.53;;;0.36;77.55
72038;BME280;59900;50.788;12.904;2023-04-03T07:44:27;98766.19;;;0.40;76.89
72038;BME280;59900;50.788;12.904;2023-04-03T07:46:52;98759.97;;;0.43;76.18
72038;BME280;59900;50.788;12.904;2023-04-03T07:49:17;98758.31;;;0.54;76.82
72038;BME280;59900;50.788;12.904;2023-04-03T07:51:43;98764.31;;;0.55;75.19
72038;BME280;59900;50.788;12.904;2023-04-03T07:54:09;98771.47;;;0.64;74.78
72038;BME280;59900;50.788;12.904;2023-04-03T07:56:34;98766.88;;;0.68;75.74
72038;BME280;59900;50.788;12.904;2023-04-03T07:59:00;98765.25;;;0.79;74.68
72038;BME280;59900;50.788;12.904;2023-04-03T08:01:25;98762.13;;;0.87;74.99
72038;BME280;59900;50.788;12.904;2023-04-03T08:03:50;98772.69;;;0.96;74.48
72038;BME280;59900;50.788;12.904;2023-04-03T08:06:16;98774.84;;;1.02;74.72
72038;BME280;59900;50.788;12.904;2023-04-03T08:08:41;98773.78;;;1.05;74.23
72038;BME280;59900;50.788;12.904;2023-04-03T08:11:06;98769.13;;;1.10;73.09
72038;BME280;59900;50.788;12.904;2023-04-03T08:13:33;98780.94;;;1.14;71.83
72038;BME280;59900;50.788;12.904;2023-04-03T08:16:17;98779.97;;;1.15;73.13
72038;BME280;59900;50.788;12.904;2023-04-03T08:18:43;98787.00;;;1.26;73.48
72038;BME280;59900;50.788;12.904;2023-04-03T08:21:10;98788.56;;;1.28;72.33
72038;BME280;59900;50.788;12.904;2023-04-03T08:23:36;98787.94;;;1.25;71.52
72038;BME280;59900;50.788;12.904;2023-04-03T08:26:14;98781.50;;;1.30;72.15
72038;BME280;59900;50.788;12.904;2023-04-03T08:28:40;98785.31;;;1.37;72.08
72038;BME280;59900;50.788;12.904;2023-04-03T08:31:07;98779.03;;;1.29;71.60
72038;BME280;59900;50.788;12.904;2023-04-03T08:33:35;98786.78;;;1.29;71.12
72038;BME280;59900;50.788;12.904;2023-04-03T08:36:07;98796.53;;;1.25;71.72
72038;BME280;59900;50.788;12.904;2023-04-03T08:38:33;98790.81;;;1.33;71.48
72038;BME280;59900;50.788;12.904;2023-04-03T08:41:09;98791.34;;;1.38;70.41
72038;BME280;59900;50.788;12.904;2023-04-03T08:46:11;98790.53;;;1.61;70.42
72038;BME280;59900;50.788;12.904;2023-04-03T08:48:41;98789.41;;;1.52;69.22
72038;BME280;59900;50.788;12.904;2023-04-03T08:51:14;98790.00;;;1.56;69.24
72038;BME280;59900;50.788;12.904;2023-04-03T08:53:43;98796.75;;;1.58;70.33
72038;BME280;59900;50.788;12.904;2023-04-03T08:56:11;98795.50;;;1.64;69.54
72038;BME280;59900;50.788;12.904;2023-04-03T08:59:01;98795.97;;;1.69;69.09
72038;BME280;59900;50.788;12.904;2023-04-03T09:01:36;98802.50;;;1.75;69.77
72038;BME280;59900;50.788;12.904;2023-04-03T09:04:10;98800.81;;;1.74;68.81
72038;BME280;59900;50.788;12.904;2023-04-03T09:06:37;98805.91;;;1.75;68.75
72038;BME280;59900;50.788;12.904;2023-04-03T09:12:04;98802.75;;;1.83;68.91
72038;BME280;59900;50.788;12.904;2023-04-03T09:15:06;98803.09;;;1.78;68.55
72038;BME280;59900;50.788;12.904;2023-04-03T09:17:45;98810.75;;;1.80;67.61
72038;BME280;59900;50.788;12.904;2023-04-03T09:20:43;98812.47;;;1.68;67.43
72038;BME280;59900;50.788;12.904;2023-04-03T09:23:19;98806.44;;;1.67;69.40
72038;BME280;59900;50.788;12.904;2023-04-03T09:25:46;98814.84;;;1.71;67.70
72038;BME280;59900;50.788;12.904;2023-04-03T09:28:12;98824.09;;;1.86;69.34
72038;BME280;59900;50.788;12.904;2023-04-03T09:30:38;98814.66;;;1.85;68.30
72038;BME280;59900;50.788;12.904;2023-04-03T09:33:04;98814.44;;;1.88;68.59
72038;BME280;59900;50.788;12.904;2023-04-03T09:35:37;98821.25;;;2.02;69.15
72038;BME280;59900;50.788;12.904;2023-04-03T09:40:37;98820.69;;;2.09;67.85
72038;BME280;59900;50.788;12.904;2023-04-03T09:45:40;98823.31;;;2.20;67.25
72038;BME280;59900;50.788;12.904;2023-04-03T09:50:52;98817.19;;;2.21;67.52
72038;BME280;59900;50.788;12.904;2023-04-03T09:56:02;98817.09;;;2.23;67.46
72038;BME280;59900;50.788;12.904;2023-04-03T09:58:33;98809.31;;;2.23;65.79
72038;BME280;59900;50.788;12.904;2023-04-03T10:01:02;98819.47;;;2.26;67.27
72038;BME280;59900;50.788;12.904;2023-04-03T10:03:31;98817.50;;;2.41;66.84
72038;BME280;59900;50.788;12.904;2023-04-03T10:05:57;98811.84;;;2.47;66.14
72038;BME280;59900;50.788;12.904;2023-04-03T10:08:31;98818.47;;;2.51;65.59
72038;BME280;59900;50.788;12.904;2023-04-03T10:11:11;98803.88;;;2.61;66.91
72038;BME280;59900;50.788;12.904;2023-04-03T10:13:49;98800.69;;;2.68;64.72
72038;BME280;59900;50.788;12.904;2023-04-03T10:16:18;98801.16;;;2.62;62.99
72038;BME280;59900;50.788;12.904;2023-04-03T10:18:53;98787.84;;;2.67;62.37
72038;BME280;59900;50.788;12.904;2023-04-03T10:21:55;98793.88;;;2.78;63.57
72038;BME280;59900;50.788;12.904;2023-04-03T10:24:36;98789.16;;;2.83;60.13
72038;BME280;59900;50.788;12.904;2023-04-03T10:27:18;98784.78;;;2.84;61.47
72038;BME280;59900;50.788;12.904;2023-04-03T10:30:04;98781.81;;;2.77;60.14
72038;BME280;59900;50.788;12.904;2023-04-03T10:32:41;98789.03;;;2.96;61.48
72038;BME280;59900;50.788;12.904;2023-04-03T10:35:25;98780.16;;;3.21;61.41
72038;BME280;59900;50.788;12.904;2023-04-03T10:38:31;98784.88;;;3.27;59.54
72038;BME280;59900;50.788;12.904;2023-04-03T10:41:17;98784.78;;;3.06;60.47
72038;BME280;59900;50.788;12.904;2023-04-03T10:43:56;98773.69;;;2.93;61.14
72038;BME280;59900;50.788;12.904;2023-04-03T10:46:59;98782.44;;;2.81;61.41
72038;BME280;59900;50.788;12.904;2023-04-03T10:52:17;98774.50;;;2.82;61.96
72038;BME280;59900;50.788;12.904;2023-04-03T10:57:49;98765.91;;;2.93;61.53
72038;BME280;59900;50.788;12.904;2023-04-03T11:00:34;98769.81;;;2.99;62.21
72038;BME280;59900;50.788;12.904;2023-04-03T11:03:11;98762.59;;;3.02;62.11
72038;BME280;59900;50.788;12.904;2023-04-03T11:05:47;98761.63;;;3.03;60.03
72038;BME280;59900;50.788;12.904;2023-04-03T11:08:28;98761.16;;;3.20;61.92
72038;BME280;59900;50.788;12.904;2023-04-03T11:11:00;98749.56;;;3.35;62.52
72038;BME280;59900;50.788;12.904;2023-04-03T11:13:35;98753.34;;;3.20;60.75
72038;BME280;59900;50.788;12.904;2023-04-03T11:16:03;98744.97;;;3.28;60.54
72038;BME280;59900;50.788;12.904;2023-04-03T11:18:40;98744.09;;;3.50;62.21
72038;BME280;59900;50.788;12.904;2023-04-03T11:21:17;98730.38;;;3.59;59.64
72038;BME280;59900;50.788;12.904;2023-04-03T11:23:44;98731.09;;;3.61;59.03
72038;BME280;59900;50.788;12.904;2023-04-03T11:26:15;98738.75;;;3.62;58.92
72038;BME280;59900;50.788;12.904;2023-04-03T11:28:41;98748.69;;;3.57;57.29
72038;BME280;59900;50.788;12.904;2023-04-03T11:31:27;98742.94;;;3.43;59.07
72038;BME280;59900;50.788;12.904;2023-04-03T11:34:15;98741.41;;;3.29;59.41
72038;BME280;59900;50.788;12.904;2023-04-03T11:36:48;98738.38;;;3.13;60.29
72038;BME280;59900;50.788;12.904;2023-04-03T11:41:53;98732.97;;;3.05;61.72
72038;BME280;59900;50.788;12.904;2023-04-03T11:44:48;98732.97;;;3.05;61.23
72038;BME280;59900;50.788;12.904;2023-04-03T11:47:44;98730.00;;;3.09;61.03
72038;BME280;59900;50.788;12.904;2023-04-03T11:50:31;98727.97;;;3.24;60.45
72038;BME280;59900;50.788;12.904;2023-04-03T12:08:53;98716.28;;;3.72;58.02
72038;BME280;59900;50.788;12.904;2023-04-03T12:16:45;98686.44;;;3.56;55.14
72038;BME280;59900;50.788;12.904;2023-04-03T12:26:46;98701.03;;;3.68;57.66
72038;BME280;59900;50.788;12.904;2023-04-03T12:37:51;98705.59;;;3.55;57.77
72038;BME280;59900;50.788;12.904;2023-04-03T12:46:11;98689.25;;;4.46;54.40
72038;BME280;59900;50.788;12.904;2023-04-03T12:48:46;98675.16;;;4.49;51.83
72038;BME280;59900;50.788;12.904;2023-04-03T12:51:22;98683.50;;;4.43;51.42
72038;BME280;59900;50.788;12.904;2023-04-03T12:53:52;98679.00;;;4.24;51.18
72038;BME280;59900;50.788;12.904;2023-04-03T12:56:25;98683.78;;;4.19;51.85
72038;BME280;59900;50.788;12.904;2023-04-03T12:58:52;98666.19;;;3.91;51.01
72038;BME280;59900;50.788;12.904;2023-04-03T13:01:23;98681.47;;;3.84;50.69
72038;BME280;59900;50.788;12.904;2023-04-03T13:03:54;98672.97;;;3.82;51.99
72038;BME280;59900;50.788;12.904;2023-04-03T13:06:26;98688.00;;;4.00;51.33
72038;BME280;59900;50.788;12.904;2023-04-03T13:08:57;98682.25;;;3.96;49.89
72038;BME280;59900;50.788;12.904;2023-04-03T13:11:24;98685.34;;;3.90;52.16
72038;BME280;59900;50.788;12.904;2023-04-03T13:14:01;98685.03;;;4.04;53.55
72038;BME280;59900;50.788;12.904;2023-04-03T13:16:28;98680.19;;;4.20;52.99
72038;BME280;59900;50.788;12.904;2023-04-03T13:18:54;98673.53;;;4.27;52.79
72038;BME280;59900;50.788;12.904;2023-04-03T13:21:24;98671.13;;;4.15;51.22
72038;BME280;59900;50.788;12.904;2023-04-03T13:23:52;98688.84;;;4.00;53.16
72038;BME280;59900;50.788;12.904;2023-04-03T13:26:21;98670.03;;;3.96;52.90
72038;BME280;59900;50.788;12.904;2023-04-03T13:28:47;98683.44;;;3.92;52.27
72038;BME280;59900;50.788;12.904;2023-04-03T13:34:03;98682.69;;;4.01;52.84
72038;BME280;59900;50.788;12.904;2023-04-03T13:36:34;98672.28;;;4.01;51.45
72038;BME280;59900;50.788;12.904;2023-04-03T13:41:39;98660.97;;;4.63;51.10
72038;BME280;59900;50.788;12.904;2023-04-03T13:46:48;98656.44;;;4.65;46.28
72038;BME280;59900;50.788;12.904;2023-04-03T13:49:32;98663.66;;;4.51;50.26
72038;BME280;59900;50.788;12.904;2023-04-03T13:51:58;98655.16;;;4.49;51.36
72038;BME280;59900;50.788;12.904;2023-04-03T13:54:30;98662.16;;;4.49;51.56
72038;BME280;59900;50.788;12.904;2023-04-03T13:56:58;98655.38;;;4.37;50.94
72038;BME280;59900;50.788;12.904;2023-04-03T13:59:28;98648.34;;;4.28;52.25
72038;BME280;59900;50.788;12.904;2023-04-03T14:04:45;98654.25;;;4.09;51.11
72038;BME280;59900;50.788;12.904;2023-04-03T14:07:12;98656.44;;;4.04;51.19
72038;BME280;59900;50.788;12.904;2023-04-03T14:09:38;98656.19;;;4.07;51.75
72038;BME280;59900;50.788;12.904;2023-04-03T14:12:33;98649.13;;;4.19;51.63
72038;BME280;59900;50.788;12.904;2023-04-03T14:15:06;98655.63;;;4.34;52.63
72038;BME280;59900;50.788;12.904;2023-04-03T14:17:37;98646.66;;;4.47;51.34
72038;BME280;59900;50.788;12.904;2023-04-03T14:20:02;98647.94;;;4.63;51.56
72038;BME280;59900;50.788;12.904;2023-04-03T14:22:31;98647.94;;;4.63;51.99
72038;BME280;59900;50.788;12.904;2023-04-03T14:24:58;98656.41;;;4.55;51.69
72038;BME280;59900;50.788;12.904;2023-04-03T14:27:29;98651.03;;;4.47;52.24
72038;BME280;59900;50.788;12.904;2023-04-03T14:29:58;98657.50;;;4.22;52.22